チュニス の空港の天気 - METARとTAF

チュニス・カルタゴ国際空港 ( DTTA / TUN ) - チュニジア チュニス
飛行場実況気象(Metar)
観測時間08/05 07:30 CET (08/05 06:30 UTC)
風向・風速西南西 5m/s
視程10km以上
天気現象
少しの雲 雲底高度 910m
気温25℃
湿度41%
気圧1012hPa
METARDTTA 050630Z 25009KT 230V290 9999 FEW030 25/11 Q1012
過去の天気等 Google飛行場航空写真 Wunderground天気予報

過去48時間のMETAR

飛行場予報(TAF)
発表時間: 8/05 06:00 CET (8/05 05:00 UTC)
予報対象時間: 5日7時 CET ~ 6日7時 CET
風向・風速西南西 4m/s
視程10km以上
少しの雲 雲底高度 910m
5日16時 CET ~ 6日1時 CET に 確率 40% で一時的に
風向・風速北北西 8m/s 瞬間風速 13m/s
TAF DTTA 050500Z 0506/0606 24007KT 9999 FEW030
PROB40 TEMPO 0515/0524 34015G25KT